createdAt,value
2023-01-13T00:00:20.092Z,99884.8
2023-01-13T00:02:26.095Z,99886.48
2023-01-13T00:04:32.134Z,99883.95
2023-01-13T00:06:37.990Z,99884.25
2023-01-13T00:08:43.641Z,99884.39
2023-01-13T00:10:49.626Z,99887.97
2023-01-13T00:12:58.379Z,99875.88
2023-01-13T00:15:04.111Z,99891.55
2023-01-13T00:17:10.788Z,99886.97
2023-01-13T00:19:16.497Z,99884.73
2023-01-13T00:21:22.083Z,99886.69
2023-01-13T00:23:27.807Z,99881.45
2023-01-13T00:25:33.500Z,99883.42
2023-01-13T00:27:39.414Z,99882.02
2023-01-13T00:29:45.017Z,99884.8
2023-01-13T00:31:50.651Z,99882.88
2023-01-13T00:33:56.513Z,99889.71
2023-01-13T00:36:02.525Z,99892.31
2023-01-13T00:38:08.214Z,99889.2
2023-01-13T00:40:14.085Z,99888.73
2023-01-13T00:42:19.594Z,99888.72
2023-01-13T00:44:25.437Z,99883.5
2023-01-13T00:46:31.140Z,99885.89
2023-01-13T00:48:36.930Z,99881.28
2023-01-13T00:50:42.642Z,99878.03
2023-01-13T00:52:48.892Z,99882.12
2023-01-13T00:54:54.676Z,99876.23
2023-01-13T00:57:00.770Z,99875.7
2023-01-13T00:59:07.082Z,99877.66
2023-01-13T01:01:13.101Z,99873.91
2023-01-13T01:03:19.337Z,99876.54
2023-01-13T01:05:25.030Z,99873.29
2023-01-13T01:07:30.637Z,99874.45
2023-01-13T01:09:36.029Z,99872.8
2023-01-13T01:11:41.683Z,99874.81
2023-01-13T01:13:47.348Z,99868.34
2023-01-13T01:15:53.274Z,99864.16
2023-01-13T01:17:58.996Z,99864
2023-01-13T01:20:04.738Z,99864.74
2023-01-13T01:22:10.655Z,99859.48
2023-01-13T01:24:16.313Z,99859.84
2023-01-13T01:26:21.947Z,99860.56
2023-01-13T01:28:27.709Z,99853.06
2023-01-13T01:30:33.419Z,99856.49
2023-01-13T01:32:39.347Z,99847.52
2023-01-13T01:34:45.240Z,99847.13
2023-01-13T01:36:50.959Z,99843.5
2023-01-13T01:38:56.793Z,99834.7
2023-01-13T01:41:02.917Z,99830.26
2023-01-13T01:43:08.531Z,99835.09
2023-01-13T01:45:14.192Z,99825.64
2023-01-13T01:47:19.957Z,99825
2023-01-13T01:49:25.707Z,99819.83
2023-01-13T01:51:31.281Z,99810.39
2023-01-13T01:53:36.945Z,99812.06
2023-01-13T01:55:42.916Z,99809.02
2023-01-13T01:57:48.593Z,99809.78
2023-01-13T01:59:54.171Z,99809.04
2023-01-13T02:02:00.014Z,99804.92
2023-01-13T02:04:06.089Z,99803.42
2023-01-13T02:06:11.803Z,99804.27
2023-01-13T02:08:17.480Z,99804.09
2023-01-13T02:10:23.203Z,99798.89
2023-01-13T02:12:28.788Z,99798.89
2023-01-13T02:14:34.448Z,99798.16
2023-01-13T02:16:40.409Z,99790.35
2023-01-13T02:18:46.263Z,99790.68
2023-01-13T02:20:51.846Z,99792.23
2023-01-13T02:22:57.587Z,99788.8
2023-01-13T02:25:03.500Z,99790.8
2023-01-13T02:27:09.685Z,99789.53
2023-01-13T02:29:15.552Z,99784.98
2023-01-13T02:31:21.413Z,99789.16
2023-01-13T02:33:27.318Z,99786.02
2023-01-13T02:35:32.991Z,99781.68
2023-01-13T02:37:38.836Z,99780.91
2023-01-13T02:39:44.434Z,99784.02
2023-01-13T02:41:49.835Z,99784.27
2023-01-13T02:43:55.741Z,99788.45
2023-01-13T02:46:01.540Z,99786.22
2023-01-13T02:48:07.405Z,99780.93
2023-01-13T02:50:13.128Z,99780.73
2023-01-13T02:52:19.758Z,99773.81
2023-01-13T02:54:25.784Z,99777.44
2023-01-13T02:56:33.998Z,99780.24
2023-01-13T02:58:39.663Z,99774.51
2023-01-13T03:00:45.206Z,99775.22
2023-01-13T03:02:50.875Z,99773.98
2023-01-13T03:04:56.585Z,99769.11
2023-01-13T03:07:01.770Z,99769.17
2023-01-13T03:09:07.078Z,99768.27
2023-01-13T03:11:12.097Z,99766.78
2023-01-13T03:13:17.635Z,99767.3
2023-01-13T03:15:22.939Z,99764.07
2023-01-13T03:17:28.106Z,99765.65
2023-01-13T03:19:33.746Z,99758.26
2023-01-13T03:21:40.264Z,99754.98
2023-01-13T03:23:45.762Z,99758.67
2023-01-13T03:25:50.843Z,99760.4
2023-01-13T03:27:56.886Z,99763.48
2023-01-13T03:30:02.419Z,99762.32
2023-01-13T03:32:07.717Z,99762.4
2023-01-13T03:34:13.225Z,99758.75
2023-01-13T03:36:20.708Z,99754.78
2023-01-13T03:38:25.871Z,99758.14
2023-01-13T03:40:33.925Z,99755.34
2023-01-13T03:42:41.713Z,99755.2
2023-01-13T03:44:46.832Z,99763.59
2023-01-13T03:46:52.136Z,99756.13
2023-01-13T03:49:00.166Z,99752.59
2023-01-13T03:51:05.176Z,99753.12
2023-01-13T03:53:10.565Z,99750.31
2023-01-13T03:55:15.884Z,99752.79
2023-01-13T03:57:21.103Z,99751.83
2023-01-13T03:59:26.250Z,99754.28
2023-01-13T04:01:31.626Z,99754.48
2023-01-13T04:03:37.152Z,99748.34
2023-01-13T04:05:42.350Z,99748.33
2023-01-13T04:07:47.891Z,99745.13
2023-01-13T04:09:53.240Z,99747.5
2023-01-13T04:11:58.658Z,99743.59
2023-01-13T04:14:04.032Z,99740.53
2023-01-13T04:16:09.317Z,99739.3
2023-01-13T04:18:14.999Z,99741.22
2023-01-13T04:20:19.932Z,99739.58
2023-01-13T04:22:25.480Z,99737.58
2023-01-13T04:24:30.739Z,99738.01
2023-01-13T04:26:36.111Z,99734.45
2023-01-13T04:28:41.352Z,99736.19
2023-01-13T04:30:46.747Z,99733.16
2023-01-13T04:32:52.099Z,99735.38
2023-01-13T04:34:57.418Z,99732.69
2023-01-13T04:37:03.670Z,99729.2
2023-01-13T04:39:09.242Z,99725.95
2023-01-13T04:41:14.529Z,99727.39
2023-01-13T04:43:19.702Z,99724.86
2023-01-13T04:45:24.804Z,99729.97
2023-01-13T04:47:30.192Z,99723.66
2023-01-13T04:49:35.356Z,99727.97
2023-01-13T04:51:40.574Z,99728.98
2023-01-13T04:53:45.835Z,99732.78
2023-01-13T04:55:51.698Z,99730.56
2023-01-13T04:57:56.830Z,99731.16
2023-01-13T05:00:02.065Z,99722.95
2023-01-13T05:02:07.554Z,99722.95
2023-01-13T05:04:13.149Z,99724.84
2023-01-13T05:06:18.410Z,99729.54
2023-01-13T05:08:23.539Z,99727.09
2023-01-13T05:10:29.033Z,99729.83
2023-01-13T05:12:34.206Z,99732.36
2023-01-13T05:14:39.436Z,99730
2023-01-13T05:16:45.254Z,99733.47
2023-01-13T05:18:50.423Z,99731.34
2023-01-13T05:20:55.787Z,99731.41
2023-01-13T05:23:01.152Z,99729.77
2023-01-13T05:25:06.573Z,99729.66
2023-01-13T05:27:12.010Z,99731.74
2023-01-13T05:29:17.281Z,99733.32
2023-01-13T05:31:22.379Z,99732.83
2023-01-13T05:33:27.908Z,99736.27
2023-01-13T05:35:33.261Z,99735.86
2023-01-13T05:37:38.712Z,99738.65
2023-01-13T05:39:44.031Z,99736.03
2023-01-13T05:41:49.461Z,99738.04
2023-01-13T05:43:54.631Z,99734.69
2023-01-13T05:46:00.008Z,99734.39
2023-01-13T05:48:05.422Z,99741.22
2023-01-13T05:50:10.637Z,99740.86
2023-01-13T05:52:16.217Z,99743.89
2023-01-13T05:54:21.509Z,99743.66
2023-01-13T05:56:26.541Z,99747.58
2023-01-13T05:58:31.762Z,99744.53
2023-01-13T06:00:36.934Z,99735.56
2023-01-13T06:02:46.694Z,99742.95
2023-01-13T06:04:52.049Z,99741.02
2023-01-13T06:06:57.511Z,99752.24
2023-01-13T06:09:05.497Z,99752.65
2023-01-13T06:11:11.056Z,99758.2
2023-01-13T06:13:19.135Z,99756.41
2023-01-13T06:15:24.495Z,99753.57
2023-01-13T06:17:32.060Z,99761.52
2023-01-13T06:19:41.233Z,99761.81
2023-01-13T06:21:47.172Z,99758.98
2023-01-13T06:23:52.850Z,99759.31
2023-01-13T06:25:58.142Z,99764.56
2023-01-13T06:28:04.038Z,99768.03
2023-01-13T06:30:09.439Z,99767.49
2023-01-13T06:32:14.690Z,99762.66
2023-01-13T06:34:22.786Z,99759.14
2023-01-13T06:36:28.286Z,99758.17
2023-01-13T06:38:34.825Z,99761.58
2023-01-13T06:40:41.538Z,99759.27
2023-01-13T06:42:46.878Z,99761.67
2023-01-13T06:44:52.377Z,99761.3
2023-01-13T06:46:58.354Z,99760.43
2023-01-13T06:49:05.040Z,99759.89
2023-01-13T06:51:15.302Z,99760.95
2023-01-13T06:53:20.707Z,99758.55
2023-01-13T06:55:26.289Z,99759.05
2023-01-13T06:57:31.512Z,99758.02
2023-01-13T06:59:37.381Z,99755.47
2023-01-13T07:01:43.834Z,99753.45
2023-01-13T07:03:49.609Z,99748.02
2023-01-13T07:05:55.011Z,99747.92
2023-01-13T07:08:02.047Z,99746.13
2023-01-13T07:10:07.249Z,99747.38
2023-01-13T07:12:12.428Z,99747.41
2023-01-13T07:14:17.721Z,99748.73
2023-01-13T07:16:23.528Z,99750.88
2023-01-13T07:18:28.968Z,99748.61
2023-01-13T07:20:35.997Z,99753.95
2023-01-13T07:22:42.042Z,99754.13
2023-01-13T07:24:48.127Z,99755.63
2023-01-13T07:26:54.293Z,99751.2
2023-01-13T07:29:00.233Z,99753
2023-01-13T07:31:06.593Z,99754.41
2023-01-13T07:33:13.819Z,99754.57
2023-01-13T07:35:19.974Z,99757.3
2023-01-13T07:37:31.270Z,99754.09
2023-01-13T07:39:37.638Z,99760.11
2023-01-13T07:41:44.492Z,99753.86
2023-01-13T07:43:50.175Z,99758.55
2023-01-13T07:45:56.145Z,99758.53
2023-01-13T07:48:05.134Z,99759.38
2023-01-13T07:50:11.135Z,99755.09
2023-01-13T07:52:17.019Z,99758.07
2023-01-13T07:54:41.432Z,99760.06
2023-01-13T07:56:47.634Z,99757.92
2023-01-13T07:58:54.061Z,99754.93
2023-01-13T08:01:00.806Z,99760.78
2023-01-13T08:03:07.882Z,99749.84
2023-01-13T08:05:13.695Z,99754.13
2023-01-13T08:07:20.272Z,99752.73
2023-01-13T08:09:25.617Z,99760.14
2023-01-13T08:11:32.907Z,99758.82
2023-01-13T08:13:39.143Z,99758.47
2023-01-13T08:15:44.823Z,99760.13
2023-01-13T08:17:50.907Z,99762.25
2023-01-13T08:19:56.558Z,99762.25
2023-01-13T08:22:02.050Z,99755.91
2023-01-13T08:24:07.873Z,99758.75
2023-01-13T08:26:13.599Z,99755.47
2023-01-13T08:28:19.853Z,99757.2
2023-01-13T08:30:25.776Z,99756.61
2023-01-13T08:32:31.552Z,99759.91
2023-01-13T08:34:36.981Z,99757.52
2023-01-13T08:36:42.862Z,99753.42
2023-01-13T08:38:48.872Z,99756.56
2023-01-13T08:40:54.696Z,99757.8
2023-01-13T08:43:00.709Z,99755.77
2023-01-13T08:45:06.511Z,99756.75
2023-01-13T08:47:12.551Z,99761.8
2023-01-13T08:49:18.178Z,99763.44
2023-01-13T08:51:24.043Z,99757.42
2023-01-13T08:53:29.598Z,99762.63
2023-01-13T08:55:34.814Z,99763.78
2023-01-13T08:57:40.222Z,99759
2023-01-13T08:59:45.756Z,99756.05
2023-01-13T09:01:51.232Z,99759.94
2023-01-13T09:03:57.468Z,99759.34
2023-01-13T09:06:03.315Z,99753.34
2023-01-13T09:08:08.777Z,99756.97
2023-01-13T09:10:13.936Z,99756.56
2023-01-13T09:12:19.511Z,99756.63
2023-01-13T09:14:25.190Z,99758.1
2023-01-13T09:16:31.366Z,99753.41
2023-01-13T09:18:37.299Z,99748.55
2023-01-13T09:20:43.264Z,99751.98
2023-01-13T09:22:48.767Z,99746.2
2023-01-13T09:24:54.033Z,99751.42
2023-01-13T09:26:59.628Z,99745.98
2023-01-13T09:29:05.188Z,99745.38
2023-01-13T09:31:10.888Z,99743.72
2023-01-13T09:33:17.429Z,99745.73
2023-01-13T09:35:23.373Z,99744.55
2023-01-13T09:37:28.815Z,99744.83
2023-01-13T09:39:34.479Z,99740.2
2023-01-13T09:41:39.940Z,99745.05
2023-01-13T09:43:45.382Z,99736.08
2023-01-13T09:45:51.143Z,99729.58
2023-01-13T09:47:57.186Z,99732.7
2023-01-13T09:50:03.218Z,99735.09
2023-01-13T09:52:09.790Z,99726.84
2023-01-13T09:54:15.506Z,99731.29
2023-01-13T09:56:21.399Z,99723.46
2023-01-13T09:58:27.528Z,99731.39
2023-01-13T10:00:33.096Z,99726.85
2023-01-13T10:02:38.816Z,99730.48
2023-01-13T10:04:44.560Z,99723.9
2023-01-13T10:06:50.860Z,99720.84
2023-01-13T10:08:56.220Z,99725.05
2023-01-13T10:11:01.859Z,99721.27
2023-01-13T10:13:08.882Z,99718
2023-01-13T10:15:15.300Z,99720.28
2023-01-13T10:17:20.966Z,99722.94
2023-01-13T10:19:27.328Z,99718.98
2023-01-13T10:21:35.368Z,99717.68
2023-01-13T10:23:42.359Z,99714.79
2023-01-13T10:25:48.262Z,99715.84
2023-01-13T10:27:54.566Z,99715.45
2023-01-13T10:30:00.602Z,99710.34
2023-01-13T10:32:06.206Z,99707.13
2023-01-13T10:34:11.692Z,99710.5
2023-01-13T10:36:17.318Z,99708.69
2023-01-13T10:38:22.914Z,99706.81
2023-01-13T10:40:28.517Z,99702.67
2023-01-13T10:42:34.517Z,99698.89
2023-01-13T10:44:40.501Z,99701.34
2023-01-13T10:46:46.362Z,99703.58
2023-01-13T10:48:53.033Z,99698.38
2023-01-13T10:50:59.794Z,99694.75
2023-01-13T10:53:05.490Z,99696.95
2023-01-13T10:55:10.978Z,99694.17
2023-01-13T10:57:16.817Z,99694.48
2023-01-13T10:59:23.049Z,99695.78
2023-01-13T11:01:28.833Z,99692.25
2023-01-13T11:03:34.817Z,99695.2
2023-01-13T11:05:40.815Z,99692.14
2023-01-13T11:07:47.230Z,99693.36
2023-01-13T11:09:53.540Z,99684.03
2023-01-13T11:11:59.380Z,99690.59
2023-01-13T11:14:04.822Z,99686.02
2023-01-13T11:16:13.468Z,99680.83
2023-01-13T11:18:19.280Z,99685.61
2023-01-13T11:20:25.386Z,99680.34
2023-01-13T11:22:31.154Z,99684.05
2023-01-13T11:24:37.803Z,99688.56
2023-01-13T11:26:43.820Z,99682.97
2023-01-13T11:28:49.805Z,99678.69
2023-01-13T11:30:55.463Z,99682.89
2023-01-13T11:33:01.355Z,99682.87
2023-01-13T11:35:07.040Z,99680.13
2023-01-13T11:37:12.264Z,99684.2
2023-01-13T11:39:17.408Z,99675.2
2023-01-13T11:41:23.202Z,99680.38
2023-01-13T11:43:28.515Z,99680.35
2023-01-13T11:45:34.123Z,99676.65
2023-01-13T11:47:39.382Z,99671.75
2023-01-13T11:49:44.994Z,99668.15
2023-01-13T11:51:50.575Z,99663.25
2023-01-13T11:53:56.437Z,99662.91
2023-01-13T11:56:01.810Z,99660.91
2023-01-13T11:58:07.431Z,99653.66
2023-01-13T12:00:12.851Z,99654.64
2023-01-13T12:02:18.378Z,99655.38
2023-01-13T12:04:24.210Z,99653.27
2023-01-13T12:06:30.674Z,99649.45
2023-01-13T12:08:36.560Z,99645.92
2023-01-13T12:10:42.793Z,99646.47
2023-01-13T12:12:48.421Z,99644.81
2023-01-13T12:14:54.439Z,99645.37
2023-01-13T12:17:02.527Z,99642.58
2023-01-13T12:19:09.236Z,99647.53
2023-01-13T12:21:15.011Z,99649.14
2023-01-13T12:23:20.652Z,99647.33
2023-01-13T12:25:26.100Z,99643.09
2023-01-13T12:27:31.207Z,99646.66
2023-01-13T12:29:36.389Z,99644.76
2023-01-13T12:31:42.348Z,99649.22
2023-01-13T12:33:48.526Z,99647.88
2023-01-13T12:35:54.219Z,99646.02
2023-01-13T12:37:59.592Z,99653.83
2023-01-13T12:40:04.854Z,99651.05
2023-01-13T12:42:10.148Z,99653.06
2023-01-13T12:44:15.507Z,99658.55
2023-01-13T12:46:20.989Z,99658.79
2023-01-13T12:48:27.175Z,99650.84
2023-01-13T12:50:32.876Z,99651.83
2023-01-13T12:52:38.745Z,99649.97
2023-01-13T12:54:44.556Z,99647.86
2023-01-13T12:56:50.149Z,99644.95
2023-01-13T12:58:55.806Z,99646.18
2023-01-13T13:01:01.608Z,99646.92
2023-01-13T13:03:07.513Z,99644.34
2023-01-13T13:05:13.440Z,99651.05
2023-01-13T13:07:23.006Z,99640.95
2023-01-13T13:09:29.278Z,99643.5
2023-01-13T13:11:35.777Z,99643.96
2023-01-13T13:13:41.571Z,99640.3
2023-01-13T13:15:49.026Z,99640.38
2023-01-13T13:17:55.670Z,99641.06
2023-01-13T13:20:01.719Z,99640.69
2023-01-13T13:22:07.775Z,99641.72
2023-01-13T13:24:14.633Z,99643.38
2023-01-13T13:26:20.865Z,99643.08
2023-01-13T13:28:27.166Z,99645.64
2023-01-13T13:30:33.112Z,99644.25
2023-01-13T13:32:38.882Z,99643.63
2023-01-13T13:34:45.025Z,99649.66
2023-01-13T13:36:51.629Z,99647.95
2023-01-13T13:38:58.637Z,99647.66
2023-01-13T13:41:05.019Z,99649.67
2023-01-13T13:43:10.229Z,99645.11
2023-01-13T13:45:15.539Z,99646.94
2023-01-13T13:47:21.309Z,99648.98
2023-01-13T13:49:26.733Z,99644.87
2023-01-13T13:51:32.562Z,99650.19
2023-01-13T13:53:38.348Z,99655.02
2023-01-13T13:55:47.058Z,99664.02
2023-01-13T13:57:52.890Z,99664.22
2023-01-13T13:59:58.185Z,99663.48
2023-01-13T14:02:04.278Z,99669
2023-01-13T14:04:09.873Z,99664.63
2023-01-13T14:06:16.003Z,99665.07
2023-01-13T14:08:22.165Z,99665.09
2023-01-13T14:10:28.373Z,99668.55
2023-01-13T14:12:34.938Z,99667.2
2023-01-13T14:14:41.204Z,99666.52
2023-01-13T14:16:46.984Z,99665.59
2023-01-13T14:18:52.238Z,99666.8
2023-01-13T14:20:58.015Z,99659.97
2023-01-13T14:23:04.626Z,99667.13
2023-01-13T14:25:10.674Z,99669.78
2023-01-13T14:27:16.676Z,99668.44
2023-01-13T14:29:21.952Z,99674.2
2023-01-13T14:31:27.373Z,99675.8
2023-01-13T14:33:37.310Z,99672.09
2023-01-13T14:35:46.150Z,99674.28
2023-01-13T14:37:57.026Z,99668.78
2023-01-13T14:40:03.482Z,99668.66
2023-01-13T14:42:10.301Z,99671.38
2023-01-13T14:44:15.533Z,99671.55
2023-01-13T14:46:22.224Z,99674.11
2023-01-13T14:48:29.088Z,99673.81
2023-01-13T14:50:35.291Z,99675.57
2023-01-13T14:52:40.507Z,99674.36
2023-01-13T14:54:45.660Z,99675.56
2023-01-13T14:56:52.332Z,99674.95
2023-01-13T14:58:58.654Z,99673.73
2023-01-13T15:01:06.665Z,99676.87
2023-01-13T15:03:13.403Z,99674.94
2023-01-13T15:05:20.017Z,99678.94
2023-01-13T15:07:26.495Z,99677.37
2023-01-13T15:09:32.666Z,99676.99
2023-01-13T15:11:39.068Z,99672.95
2023-01-13T15:13:54.719Z,99671.97
2023-01-13T15:16:00.641Z,99672.31
2023-01-13T15:18:06.833Z,99668.19
2023-01-13T15:20:12.960Z,99666.34
2023-01-13T15:22:19.910Z,99669.45
2023-01-13T15:24:26.857Z,99667.05
2023-01-13T15:26:33.961Z,99669.54
2023-01-13T15:28:40.283Z,99671.1
2023-01-13T15:30:47.609Z,99668.45
2023-01-13T15:32:53.897Z,99673.83
2023-01-13T15:35:00.488Z,99670.29
2023-01-13T15:37:06.735Z,99672.98
2023-01-13T15:39:14.183Z,99674.28
2023-01-13T15:41:20.656Z,99676.05
2023-01-13T15:43:27.887Z,99675.16
2023-01-13T15:45:34.690Z,99673.38
2023-01-13T15:47:42.205Z,99670.92
2023-01-13T15:49:49.017Z,99668.63
2023-01-13T15:51:55.588Z,99666.61
2023-01-13T15:54:01.811Z,99674.6
2023-01-13T15:56:07.397Z,99676.53
2023-01-13T15:58:13.321Z,99680.66
2023-01-13T16:00:19.943Z,99681.41
2023-01-13T16:02:26.340Z,99680.41
2023-01-13T16:04:32.440Z,99683.06
2023-01-13T16:06:37.743Z,99690.16
2023-01-13T16:08:44.527Z,99688.17
2023-01-13T16:10:50.129Z,99692.95
2023-01-13T16:12:55.994Z,99694.84
2023-01-13T16:15:02.493Z,99699.47
2023-01-13T16:17:08.912Z,99697.43
2023-01-13T16:19:15.530Z,99693.45
2023-01-13T16:21:22.458Z,99692.74
2023-01-13T16:23:28.962Z,99692.54
2023-01-13T16:25:34.905Z,99690.49
2023-01-13T16:27:40.708Z,99691.81
2023-01-13T16:29:47.909Z,99692.89
2023-01-13T16:31:54.404Z,99690.92
2023-01-13T16:34:00.035Z,99694.81
2023-01-13T16:36:14.023Z,99695.38
2023-01-13T16:38:20.148Z,99695.8
2023-01-13T16:40:26.280Z,99690.38
2023-01-13T16:42:34.887Z,99691.38
2023-01-13T16:44:41.926Z,99693.16
2023-01-13T16:46:48.694Z,99696.7
2023-01-13T16:48:54.742Z,99694.66
2023-01-13T16:51:00.719Z,99689.63
2023-01-13T16:53:07.580Z,99692.7
2023-01-13T16:55:15.220Z,99694.84
2023-01-13T16:57:21.839Z,99701.68
2023-01-13T16:59:28.999Z,99702.31
2023-01-13T17:01:36.581Z,99699.76
2023-01-13T17:03:43.622Z,99703.97
2023-01-13T17:05:51.243Z,99706.38
2023-01-13T17:07:58.183Z,99704.79
2023-01-13T17:10:04.629Z,99705.95
2023-01-13T17:12:11.304Z,99709.41
2023-01-13T17:14:20.902Z,99705.7
2023-01-13T17:16:27.180Z,99704.53
2023-01-13T17:18:33.242Z,99702.47
2023-01-13T17:20:41.291Z,99706.94
2023-01-13T17:22:59.404Z,99713.19
2023-01-13T17:25:05.495Z,99711.63
2023-01-13T17:27:12.733Z,99721.29
2023-01-13T17:29:21.384Z,99715.66
2023-01-13T17:31:29.384Z,99716.91
2023-01-13T17:33:36.566Z,99722.19
2023-01-13T17:35:43.204Z,99715.34
2023-01-13T17:37:51.020Z,99716.83
2023-01-13T17:39:59.861Z,99717.25
2023-01-13T17:42:06.731Z,99716.59
2023-01-13T17:44:13.861Z,99718.39
2023-01-13T17:46:21.705Z,99719.41
2023-01-13T17:48:28.903Z,99716.02
2023-01-13T17:50:35.986Z,99717.09
2023-01-13T17:52:43.152Z,99718
2023-01-13T17:54:50.238Z,99716
2023-01-13T17:56:58.503Z,99717.68
2023-01-13T17:59:08.172Z,99719.98
2023-01-13T18:01:16.585Z,99716.26
2023-01-13T18:03:28.609Z,99712.38
2023-01-13T18:05:36.291Z,99717.48
2023-01-13T18:07:44.661Z,99717.91
2023-01-13T18:09:52.015Z,99718.23
2023-01-13T18:12:01.953Z,99719.15
2023-01-13T18:14:10.434Z,99715.91
2023-01-13T18:16:20.820Z,99722.02
2023-01-13T18:18:35.001Z,99719.37
2023-01-13T18:20:43.126Z,99715.91
2023-01-13T18:22:50.838Z,99715.48
2023-01-13T18:24:58.946Z,99719.37
2023-01-13T18:27:10.749Z,99721.91
2023-01-13T18:29:18.748Z,99721.02
2023-01-13T18:31:26.790Z,99723.97
2023-01-13T18:33:35.790Z,99728.51
2023-01-13T18:35:45.179Z,99730.8
2023-01-13T18:37:55.143Z,99731.95
2023-01-13T18:40:03.327Z,99731.55
2023-01-13T18:42:10.714Z,99732.38
2023-01-13T18:44:17.955Z,99737.59
2023-01-13T18:46:24.199Z,99744.25
2023-01-13T18:48:32.908Z,99744.98
2023-01-13T18:50:41.080Z,99742.1
2023-01-13T18:52:48.102Z,99743.5
2023-01-13T18:54:59.711Z,99743.81
2023-01-13T18:57:07.439Z,99747.61
2023-01-13T18:59:18.486Z,99744.74
2023-01-13T19:01:29.948Z,99748.95
2023-01-13T19:03:39.762Z,99750.41
2023-01-13T19:05:48.007Z,99753.55
2023-01-13T19:07:53.733Z,99754.53
2023-01-13T19:10:00.242Z,99755.46
2023-01-13T19:12:06.969Z,99755.13
2023-01-13T19:14:17.226Z,99748.55
2023-01-13T19:16:24.414Z,99750.09
2023-01-13T19:18:30.936Z,99752.53
2023-01-13T19:20:39.470Z,99753.19
2023-01-13T19:22:49.479Z,99754.48
2023-01-13T19:24:58.007Z,99753.03
2023-01-13T19:27:07.067Z,99758.53
2023-01-13T19:29:13.521Z,99762.36
2023-01-13T19:31:20.674Z,99769.06
2023-01-13T19:33:27.963Z,99761.45
2023-01-13T19:35:35.001Z,99762.71
2023-01-13T19:37:44.745Z,99763.02
2023-01-13T19:39:51.220Z,99764.96
2023-01-13T19:41:57.384Z,99765.48
2023-01-13T19:44:04.904Z,99768.54
2023-01-13T19:46:15.091Z,99768.28
2023-01-13T19:48:24.100Z,99775.26
2023-01-13T19:50:36.773Z,99781.75
2023-01-13T19:52:46.966Z,99775.88
2023-01-13T19:55:01.380Z,99781.24
2023-01-13T19:57:12.113Z,99785.45
2023-01-13T19:59:26.731Z,99787.11
2023-01-13T20:01:44.497Z,99790.65
2023-01-13T20:03:53.148Z,99788.95
2023-01-13T20:06:01.543Z,99793.49
2023-01-13T20:08:08.031Z,99798.46
2023-01-13T20:10:14.714Z,99801.27
2023-01-13T20:12:22.022Z,99798.39
2023-01-13T20:14:30.983Z,99800.37
2023-01-13T20:16:40.659Z,99795.84
2023-01-13T20:18:48.287Z,99797.84
2023-01-13T20:20:56.369Z,99803.64
2023-01-13T20:23:04.158Z,99805.55
2023-01-13T20:25:11.830Z,99810.28
2023-01-13T20:27:21.388Z,99809.7
2023-01-13T20:29:29.065Z,99819.52
2023-01-13T20:31:40.825Z,99822.56
2023-01-13T20:33:50.755Z,99827.59
2023-01-13T20:35:59.115Z,99826.04
2023-01-13T20:38:07.383Z,99826.69
2023-01-13T20:40:15.230Z,99829.23
2023-01-13T20:42:21.580Z,99834.69
2023-01-13T20:44:27.769Z,99833.72
2023-01-13T20:46:38.462Z,99838.73
2023-01-13T20:48:48.479Z,99836.77
2023-01-13T20:50:57.213Z,99844.44
2023-01-13T20:53:05.563Z,99848.39
2023-01-13T20:55:13.934Z,99851.01
2023-01-13T20:57:23.084Z,99852.91
2023-01-13T20:59:32.707Z,99854.48
2023-01-13T21:01:40.482Z,99848.8
2023-01-13T21:03:49.495Z,99849.87
2023-01-13T21:05:57.636Z,99859.02
2023-01-13T21:08:03.922Z,99861.09
2023-01-13T21:10:12.200Z,99861.27
2023-01-13T21:12:18.630Z,99869.33
2023-01-13T21:14:25.638Z,99865.94
2023-01-13T21:16:32.557Z,99870.06
2023-01-13T21:18:38.876Z,99878.82
2023-01-13T21:20:45.414Z,99880.45
2023-01-13T21:22:51.207Z,99884.89
2023-01-13T21:24:57.115Z,99880.94
2023-01-13T21:27:02.822Z,99882.69
2023-01-13T21:29:09.543Z,99887.38
2023-01-13T21:31:16.209Z,99884.64
2023-01-13T21:33:23.020Z,99883.75
2023-01-13T21:35:29.740Z,99885.97
2023-01-13T21:37:36.411Z,99886.39
2023-01-13T21:39:43.002Z,99884.5
2023-01-13T21:41:48.619Z,99879.28
2023-01-13T21:43:54.109Z,99878.38
2023-01-13T21:46:00.069Z,99882.4
2023-01-13T21:48:09.189Z,99878.63
2023-01-13T21:50:15.085Z,99879.77
2023-01-13T21:52:20.795Z,99883.56
2023-01-13T21:54:27.398Z,99888.17
2023-01-13T21:56:33.232Z,99896.08
2023-01-13T21:58:39.070Z,99895.9
2023-01-13T22:00:44.516Z,99901.75
2023-01-13T22:02:53.702Z,99904.3
2023-01-13T22:04:59.322Z,99903.05
2023-01-13T22:07:04.662Z,99901.23
2023-01-13T22:09:09.870Z,99903.95
2023-01-13T22:11:15.104Z,99905.43
2023-01-13T22:13:20.594Z,99909.45
2023-01-13T22:15:25.754Z,99912.83
2023-01-13T22:17:31.177Z,99915.97
2023-01-13T22:19:36.541Z,99913.78
2023-01-13T22:21:42.562Z,99913.05
2023-01-13T22:23:48.275Z,99913.44
2023-01-13T22:25:54.113Z,99911.41
2023-01-13T22:27:59.929Z,99915.77
2023-01-13T22:30:05.740Z,99919.77
2023-01-13T22:32:12.036Z,99918.19
2023-01-13T22:34:18.685Z,99922.38
2023-01-13T22:36:24.134Z,99927.71
2023-01-13T22:38:29.259Z,99923.82
2023-01-13T22:40:35.369Z,99925.78
2023-01-13T22:42:41.495Z,99925.78
2023-01-13T22:44:46.942Z,99931.69
2023-01-13T22:46:53.025Z,99934.15
2023-01-13T22:48:58.817Z,99939.41
2023-01-13T22:51:04.420Z,99947.19
2023-01-13T22:53:09.945Z,99941.13
2023-01-13T22:55:15.585Z,99948.38
2023-01-13T22:57:21.840Z,99943.37
2023-01-13T22:59:29.747Z,99951.5
2023-01-13T23:01:35.202Z,99951.23
2023-01-13T23:03:40.512Z,99952.73
2023-01-13T23:05:46.666Z,99952.93
2023-01-13T23:07:52.058Z,99953.11
2023-01-13T23:09:57.732Z,99953.57
2023-01-13T23:12:03.070Z,99954.2
2023-01-13T23:14:08.128Z,99956.44
2023-01-13T23:16:13.416Z,99960.26
2023-01-13T23:18:18.605Z,99962.45
2023-01-13T23:20:23.903Z,99960.46
2023-01-13T23:22:29.372Z,99965.02
2023-01-13T23:24:34.515Z,99969.59
2023-01-13T23:26:39.609Z,99964.44
2023-01-13T23:28:44.930Z,99966.78
2023-01-13T23:30:49.954Z,99967.17
2023-01-13T23:32:55.117Z,99962.11
2023-01-13T23:35:00.330Z,99961.98
2023-01-13T23:37:05.537Z,99961.97
2023-01-13T23:39:10.587Z,99965.95
2023-01-13T23:41:15.717Z,99959.41
2023-01-13T23:43:21.612Z,99958.13
2023-01-13T23:45:27.347Z,99959.86
2023-01-13T23:47:32.865Z,99957.92
2023-01-13T23:49:38.200Z,99967.39
2023-01-13T23:51:43.628Z,99964.8
2023-01-13T23:53:48.732Z,99968.63
2023-01-13T23:55:54.145Z,99970.38
2023-01-13T23:57:59.253Z,99964.8
